createdAt,value
2022-09-09T00:00:13.619Z,90.00
2022-09-09T00:01:53.868Z,90.08
2022-09-09T00:03:13.222Z,89.72
2022-09-09T00:04:27.874Z,89.55
2022-09-09T00:05:54.930Z,89.60
2022-09-09T00:07:41.020Z,89.53
2022-09-09T00:09:19.206Z,88.52
2022-09-09T00:10:29.746Z,88.99
2022-09-09T00:11:57.980Z,88.88
2022-09-09T00:13:25.179Z,88.54
2022-09-09T00:14:43.365Z,88.35
2022-09-09T00:16:23.711Z,88.75
2022-09-09T00:18:20.674Z,88.96
2022-09-09T00:19:41.378Z,89.09
2022-09-09T00:21:14.583Z,89.72
2022-09-09T00:22:23.241Z,89.10
2022-09-09T00:23:42.729Z,89.23
2022-09-09T00:24:57.866Z,88.85
2022-09-09T00:26:15.105Z,88.76
2022-09-09T00:27:40.165Z,88.62
2022-09-09T00:28:55.530Z,89.30
2022-09-09T00:30:23.697Z,89.34
2022-09-09T00:31:33.519Z,88.79
2022-09-09T00:32:41.027Z,89.29
2022-09-09T00:33:44.468Z,89.01
2022-09-09T00:34:56.580Z,89.28
2022-09-09T00:36:02.146Z,88.73
2022-09-09T00:37:04.542Z,88.88
2022-09-09T00:38:16.870Z,88.78
2022-09-09T00:39:34.036Z,88.83
2022-09-09T00:40:52.098Z,88.65
2022-09-09T00:42:16.194Z,88.66
2022-09-09T00:43:31.359Z,88.78
2022-09-09T00:44:36.571Z,88.35
2022-09-09T00:46:03.012Z,88.38
2022-09-09T00:47:50.261Z,88.42
2022-09-09T00:48:57.490Z,88.93
2022-09-09T00:50:26.011Z,89.33
2022-09-09T00:51:36.076Z,88.99
2022-09-09T00:53:15.931Z,89.14
2022-09-09T00:54:36.873Z,88.38
2022-09-09T00:56:09.647Z,88.48
2022-09-09T00:57:12.582Z,88.66
2022-09-09T00:58:15.053Z,88.55
2022-09-09T00:59:48.137Z,89.03
2022-09-09T01:01:09.023Z,88.59
2022-09-09T01:02:29.319Z,88.69
2022-09-09T01:03:40.680Z,88.17
2022-09-09T01:04:45.493Z,88.71
2022-09-09T01:05:58.937Z,88.77
2022-09-09T01:07:17.566Z,88.57
2022-09-09T01:08:19.612Z,88.47
2022-09-09T01:09:43.806Z,87.98
2022-09-09T01:10:50.875Z,87.99
2022-09-09T01:12:13.838Z,88.16
2022-09-09T01:13:28.994Z,88.08
2022-09-09T01:14:37.505Z,87.87
2022-09-09T01:15:47.957Z,88.24
2022-09-09T01:16:56.726Z,88.74
2022-09-09T01:18:15.799Z,88.64
2022-09-09T01:19:42.360Z,88.36
2022-09-09T01:21:16.464Z,88.55
2022-09-09T01:22:38.069Z,88.18
2022-09-09T01:23:54.257Z,88.82
2022-09-09T01:25:44.823Z,88.78
2022-09-09T01:27:02.419Z,88.84
2022-09-09T01:28:12.622Z,89.12
2022-09-09T01:29:24.989Z,89.29
2022-09-09T01:30:29.009Z,89.28
2022-09-09T01:31:40.786Z,89.72
2022-09-09T01:32:49.827Z,89.50
2022-09-09T01:33:54.066Z,89.38
2022-09-09T01:35:03.234Z,89.65
2022-09-09T01:36:14.585Z,88.98
2022-09-09T01:37:22.763Z,89.02
2022-09-09T01:38:26.329Z,89.01
2022-09-09T01:39:33.310Z,89.02
2022-09-09T01:40:46.889Z,88.93
2022-09-09T01:41:56.938Z,88.68
2022-09-09T01:43:01.119Z,88.71
2022-09-09T01:44:04.081Z,88.62
2022-09-09T01:45:10.568Z,88.62
2022-09-09T01:46:16.881Z,88.84
2022-09-09T01:47:20.645Z,88.53
2022-09-09T01:48:51.231Z,88.92
2022-09-09T01:49:53.916Z,88.51
2022-09-09T01:51:00.325Z,88.47
2022-09-09T01:52:05.773Z,88.35
2022-09-09T01:53:15.860Z,87.78
2022-09-09T01:54:19.039Z,87.79
2022-09-09T01:55:29.854Z,88.31
2022-09-09T01:56:41.193Z,88.03
2022-09-09T01:57:58.552Z,88.16
2022-09-09T01:59:32.801Z,87.77
2022-09-09T02:00:38.843Z,88.09
2022-09-09T02:01:44.426Z,87.50
2022-09-09T02:03:07.826Z,87.36
2022-09-09T02:04:37.109Z,87.73
2022-09-09T02:06:02.479Z,87.38
2022-09-09T02:07:29.612Z,87.69
2022-09-09T02:08:50.245Z,88.15
2022-09-09T02:10:05.581Z,87.66
2022-09-09T02:11:14.023Z,87.63
2022-09-09T02:12:27.290Z,87.76
2022-09-09T02:13:38.101Z,87.64
2022-09-09T02:14:56.353Z,88.37
2022-09-09T02:16:09.646Z,88.93
2022-09-09T02:17:14.904Z,88.54
2022-09-09T02:19:08.149Z,88.71
2022-09-09T02:20:29.687Z,88.70
2022-09-09T02:21:36.300Z,88.85
2022-09-09T02:22:44.166Z,89.24
2022-09-09T02:23:51.579Z,89.12
2022-09-09T02:25:00.255Z,89.47
2022-09-09T02:26:08.959Z,90.03
2022-09-09T02:27:13.791Z,90.37
2022-09-09T02:28:18.620Z,90.64
2022-09-09T02:29:27.411Z,90.91
2022-09-09T02:30:33.385Z,91.35
2022-09-09T02:31:38.080Z,91.26
2022-09-09T02:32:48.420Z,91.99
2022-09-09T02:34:02.161Z,91.75
2022-09-09T02:35:12.055Z,92.00
2022-09-09T02:36:17.499Z,91.68
2022-09-09T02:37:23.700Z,92.13
2022-09-09T02:38:32.038Z,92.62
2022-09-09T02:39:44.846Z,92.50
2022-09-09T02:40:50.701Z,93.25
2022-09-09T02:41:53.851Z,93.55
2022-09-09T02:43:05.642Z,93.29
2022-09-09T02:44:18.054Z,93.44
2022-09-09T02:45:30.452Z,93.25
2022-09-09T02:47:03.130Z,93.33
2022-09-09T02:48:28.143Z,93.69
2022-09-09T02:50:07.947Z,93.81
2022-09-09T02:51:19.934Z,94.03
2022-09-09T02:52:35.653Z,94.42
2022-09-09T02:53:37.910Z,94.00
2022-09-09T02:54:41.613Z,93.91
2022-09-09T02:55:59.344Z,93.61
2022-09-09T02:57:17.488Z,93.54
2022-09-09T02:58:23.235Z,93.34
2022-09-09T02:59:33.348Z,93.22
2022-09-09T03:00:37.260Z,92.69
2022-09-09T03:01:41.275Z,93.03
2022-09-09T03:02:46.553Z,92.81
2022-09-09T03:03:49.415Z,92.76
2022-09-09T03:04:54.911Z,92.34
2022-09-09T03:05:58.180Z,92.52
2022-09-09T03:07:02.209Z,92.14
2022-09-09T03:08:06.645Z,91.72
2022-09-09T03:09:11.495Z,91.38
2022-09-09T03:10:15.604Z,91.71
2022-09-09T03:11:18.571Z,92.32
2022-09-09T03:12:21.656Z,92.49
2022-09-09T03:13:24.222Z,92.31
2022-09-09T03:14:28.048Z,92.27
2022-09-09T03:15:32.260Z,92.19
2022-09-09T03:16:35.636Z,91.88
2022-09-09T03:17:39.506Z,91.86
2022-09-09T03:18:44.862Z,92.27
2022-09-09T03:19:50.809Z,92.53
2022-09-09T03:20:56.180Z,93.08
2022-09-09T03:21:59.630Z,92.75
2022-09-09T03:23:03.541Z,92.94
2022-09-09T03:24:06.411Z,92.81
2022-09-09T03:25:09.479Z,93.64
2022-09-09T03:26:16.290Z,93.94
2022-09-09T03:27:21.615Z,93.89
2022-09-09T03:28:24.438Z,93.72
2022-09-09T03:29:26.902Z,93.47
2022-09-09T03:30:32.229Z,93.59
2022-09-09T03:32:59.239Z,92.98
2022-09-09T03:34:08.034Z,92.97
2022-09-09T03:35:12.597Z,92.61
2022-09-09T03:36:16.053Z,92.42
2022-09-09T03:37:18.947Z,93.04
2022-09-09T03:38:21.610Z,92.74
2022-09-09T03:39:27.434Z,92.90
2022-09-09T03:40:29.543Z,92.86
2022-09-09T03:41:32.202Z,92.70
2022-09-09T03:42:38.176Z,92.67
2022-09-09T03:43:43.126Z,92.87
2022-09-09T03:44:51.204Z,93.08
2022-09-09T03:45:58.161Z,93.97
2022-09-09T03:47:02.203Z,93.91
2022-09-09T03:48:05.318Z,93.83
2022-09-09T03:49:11.443Z,93.72
2022-09-09T03:50:17.387Z,94.47
2022-09-09T03:51:23.275Z,94.81
2022-09-09T03:52:28.109Z,95.92
2022-09-09T03:53:31.706Z,96.22
2022-09-09T03:54:34.122Z,95.59
2022-09-09T03:55:38.826Z,95.79
2022-09-09T03:56:42.806Z,95.15
2022-09-09T03:57:47.945Z,95.11
2022-09-09T03:58:50.817Z,95.23
2022-09-09T03:59:53.627Z,95.62
2022-09-09T04:00:57.669Z,95.31
2022-09-09T04:02:04.965Z,94.94
2022-09-09T04:03:07.129Z,94.57
2022-09-09T04:04:10.102Z,93.23
2022-09-09T04:05:13.218Z,86.04
2022-09-09T04:06:22.269Z,79.47
2022-09-09T04:07:24.695Z,75.37
2022-09-09T04:08:34.755Z,70.42
2022-09-09T04:09:36.963Z,65.90
2022-09-09T04:10:39.090Z,64.04
2022-09-09T04:11:41.416Z,61.58
2022-09-09T04:12:47.748Z,57.65
2022-09-09T04:13:51.650Z,54.89
2022-09-09T04:14:54.681Z,54.49
2022-09-09T04:15:59.863Z,54.48
2022-09-09T04:17:07.408Z,52.24
2022-09-09T04:18:15.076Z,52.08
2022-09-09T04:19:20.320Z,49.34
2022-09-09T04:20:23.321Z,47.53
2022-09-09T04:21:28.577Z,45.94
2022-09-09T04:22:31.966Z,46.98
2022-09-09T04:23:37.296Z,46.24
2022-09-09T04:24:40.480Z,45.88
2022-09-09T04:25:50.246Z,45.01
2022-09-09T04:26:52.410Z,44.08
2022-09-09T04:27:59.285Z,43.28
2022-09-09T04:29:04.781Z,40.99
2022-09-09T04:30:08.918Z,41.54
2022-09-09T04:31:19.158Z,40.39
2022-09-09T04:32:22.935Z,40.55
2022-09-09T04:33:27.784Z,39.86
2022-09-09T04:34:31.744Z,40.18
2022-09-09T04:35:35.509Z,40.82
2022-09-09T04:36:37.813Z,40.58
2022-09-09T04:37:41.895Z,40.39
2022-09-09T04:38:45.563Z,39.95
2022-09-09T04:39:47.890Z,39.02
2022-09-09T04:40:52.608Z,40.25
2022-09-09T04:41:54.860Z,40.31
2022-09-09T04:43:02.422Z,40.23
2022-09-09T04:44:04.864Z,40.38
2022-09-09T04:45:08.660Z,39.45
2022-09-09T04:46:11.026Z,38.79
2022-09-09T04:47:13.293Z,37.41
2022-09-09T04:48:15.441Z,37.01
2022-09-09T04:49:17.646Z,36.30
2022-09-09T04:50:19.942Z,37.26
2022-09-09T04:51:23.254Z,37.52
2022-09-09T04:52:26.876Z,37.68
2022-09-09T04:53:29.351Z,36.11
2022-09-09T04:54:31.615Z,36.41
2022-09-09T04:55:35.996Z,35.11
2022-09-09T04:56:38.007Z,35.46
2022-09-09T04:57:40.932Z,36.46
2022-09-09T04:58:44.182Z,36.86
2022-09-09T04:59:47.166Z,37.20
2022-09-09T05:00:50.522Z,37.34
2022-09-09T05:01:55.652Z,36.76
2022-09-09T05:02:57.903Z,36.77
2022-09-09T05:04:00.544Z,36.23
2022-09-09T05:05:12.412Z,36.16
2022-09-09T05:06:17.424Z,36.97
2022-09-09T05:07:20.590Z,34.23
2022-09-09T05:08:23.975Z,35.38
2022-09-09T05:09:26.467Z,36.65
2022-09-09T05:10:28.632Z,35.23
2022-09-09T05:11:33.415Z,34.36
2022-09-09T05:12:55.111Z,32.29
2022-09-09T05:13:59.964Z,31.87
2022-09-09T05:15:04.943Z,32.22
2022-09-09T05:16:07.232Z,30.85
2022-09-09T05:17:09.519Z,31.51
2022-09-09T05:18:13.805Z,31.64
2022-09-09T05:19:15.859Z,31.29
2022-09-09T05:20:23.514Z,31.48
2022-09-09T05:21:29.540Z,31.33
2022-09-09T05:22:31.749Z,31.06
2022-09-09T05:23:35.053Z,31.12
2022-09-09T05:24:37.860Z,31.87
2022-09-09T05:25:41.677Z,33.62
2022-09-09T05:26:44.584Z,32.67
2022-09-09T05:27:47.064Z,33.69
2022-09-09T05:28:50.222Z,32.77
2022-09-09T05:29:52.386Z,33.56
2022-09-09T05:31:05.921Z,32.50
2022-09-09T05:32:15.235Z,32.11
2022-09-09T05:33:22.210Z,31.53
2022-09-09T05:34:24.466Z,31.33
2022-09-09T05:35:26.563Z,31.59
2022-09-09T05:36:28.659Z,31.03
2022-09-09T05:37:35.108Z,30.61
2022-09-09T05:38:37.615Z,29.99
2022-09-09T05:39:39.896Z,31.19
2022-09-09T05:41:51.098Z,32.02
2022-09-09T05:42:54.679Z,32.30
2022-09-09T05:43:59.957Z,32.44
2022-09-09T05:45:02.316Z,31.37
2022-09-09T05:46:10.174Z,29.92
2022-09-09T05:47:13.592Z,31.20
2022-09-09T05:48:17.666Z,30.51
2022-09-09T05:49:20.180Z,29.79
2022-09-09T05:50:23.785Z,31.35
2022-09-09T05:51:31.179Z,31.11
2022-09-09T05:52:35.309Z,31.41
2022-09-09T05:53:37.985Z,31.94
2022-09-09T05:54:40.380Z,33.21
2022-09-09T05:55:43.190Z,33.14
2022-09-09T05:56:51.062Z,33.42
2022-09-09T05:57:54.008Z,33.21
2022-09-09T05:58:57.149Z,33.43
2022-09-09T06:00:00.687Z,31.32
2022-09-09T06:01:08.359Z,30.62
2022-09-09T06:02:11.475Z,30.61
2022-09-09T06:03:13.993Z,31.00
2022-09-09T06:04:16.417Z,31.45
2022-09-09T06:05:18.651Z,32.19
2022-09-09T06:06:25.157Z,31.79
2022-09-09T06:07:27.159Z,30.12
2022-09-09T06:08:30.458Z,31.21
2022-09-09T06:09:32.807Z,30.63
2022-09-09T06:10:35.895Z,32.01
2022-09-09T06:11:40.631Z,33.19
2022-09-09T06:12:42.903Z,33.38
2022-09-09T06:13:48.843Z,33.24
2022-09-09T06:14:53.223Z,33.04
2022-09-09T06:15:56.076Z,33.78
2022-09-09T06:16:58.126Z,34.50
2022-09-09T06:18:04.554Z,31.74
2022-09-09T06:19:07.665Z,31.31
2022-09-09T06:20:10.447Z,29.79
2022-09-09T06:21:24.685Z,29.53
2022-09-09T06:22:26.644Z,30.88
2022-09-09T06:23:31.763Z,29.94
2022-09-09T06:24:34.127Z,29.11
2022-09-09T06:25:41.846Z,30.77
2022-09-09T06:26:44.472Z,31.10
2022-09-09T06:27:54.368Z,29.95
2022-09-09T06:28:58.458Z,28.44
2022-09-09T06:30:00.909Z,27.26
2022-09-09T06:31:08.178Z,25.81
2022-09-09T06:32:10.236Z,25.26
2022-09-09T06:33:12.373Z,24.68
2022-09-09T06:34:14.577Z,25.50
2022-09-09T06:35:21.258Z,26.24
2022-09-09T06:36:26.463Z,25.94
2022-09-09T06:37:28.608Z,28.03
2022-09-09T06:38:31.119Z,29.33
2022-09-09T06:39:33.274Z,30.07
2022-09-09T06:40:36.515Z,29.04
2022-09-09T06:41:39.706Z,29.09
2022-09-09T06:42:46.165Z,29.47
2022-09-09T06:44:29.488Z,28.96
2022-09-09T06:45:37.648Z,28.63
2022-09-09T06:46:40.964Z,28.35
2022-09-09T06:47:45.727Z,29.16
2022-09-09T06:48:47.803Z,28.81
2022-09-09T06:49:51.755Z,28.09
2022-09-09T06:51:09.543Z,28.95
2022-09-09T06:52:13.155Z,28.31
2022-09-09T06:53:20.168Z,27.99
2022-09-09T06:54:26.516Z,27.34
2022-09-09T06:55:29.268Z,26.71
2022-09-09T06:56:32.929Z,27.81
2022-09-09T06:57:38.016Z,27.36
2022-09-09T06:59:05.214Z,28.89
2022-09-09T07:00:09.074Z,30.96
2022-09-09T07:01:16.006Z,32.65
2022-09-09T07:02:18.063Z,32.84
2022-09-09T07:03:20.200Z,31.84
2022-09-09T07:04:22.155Z,33.06
2022-09-09T07:05:24.487Z,32.48
2022-09-09T07:06:30.223Z,32.92
2022-09-09T07:07:34.540Z,33.83
2022-09-09T07:08:36.899Z,34.06
2022-09-09T07:09:39.451Z,34.35
2022-09-09T07:10:41.377Z,33.40
2022-09-09T07:11:46.283Z,32.71
2022-09-09T07:12:53.430Z,32.52
2022-09-09T07:14:00.921Z,31.49
2022-09-09T07:15:06.535Z,29.63
2022-09-09T07:16:11.686Z,30.05
2022-09-09T07:17:13.610Z,30.00
2022-09-09T07:18:15.913Z,29.48
2022-09-09T07:19:18.029Z,28.55
2022-09-09T07:20:22.505Z,31.18
2022-09-09T07:21:27.535Z,31.00
2022-09-09T07:22:31.832Z,32.12
2022-09-09T07:23:36.245Z,33.29
2022-09-09T07:24:39.755Z,33.57
2022-09-09T07:25:46.896Z,34.32
2022-09-09T07:26:49.732Z,34.04
2022-09-09T07:27:52.646Z,34.54
2022-09-09T07:28:58.182Z,34.36
2022-09-09T07:30:00.279Z,35.26
2022-09-09T07:31:06.013Z,35.30
2022-09-09T07:32:08.551Z,36.18
2022-09-09T07:33:13.146Z,37.02
2022-09-09T07:34:15.532Z,37.40
2022-09-09T07:35:17.724Z,37.42
2022-09-09T07:36:24.424Z,36.49
2022-09-09T07:37:26.723Z,35.84
2022-09-09T07:38:30.366Z,36.65
2022-09-09T07:39:32.674Z,35.85
2022-09-09T07:40:37.992Z,35.46
2022-09-09T07:41:45.742Z,35.34
2022-09-09T07:42:49.344Z,34.54
2022-09-09T07:43:54.896Z,34.96
2022-09-09T07:44:57.330Z,34.21
2022-09-09T07:46:00.570Z,34.25
2022-09-09T07:47:03.975Z,34.20
2022-09-09T07:48:12.117Z,34.35
2022-09-09T07:49:15.757Z,34.23
2022-09-09T07:50:18.040Z,34.51
2022-09-09T07:51:23.865Z,33.67
2022-09-09T07:52:26.708Z,33.72
2022-09-09T07:53:32.065Z,31.14
2022-09-09T07:54:34.594Z,30.37
2022-09-09T07:55:39.855Z,28.90
2022-09-09T07:56:43.173Z,30.67
2022-09-09T07:57:46.295Z,32.16
2022-09-09T07:58:50.684Z,32.83
2022-09-09T07:59:53.397Z,33.87
2022-09-09T08:00:55.934Z,34.16
2022-09-09T08:01:59.369Z,34.21
2022-09-09T08:03:05.098Z,34.88
2022-09-09T08:04:18.342Z,34.78
2022-09-09T08:05:23.509Z,34.88
2022-09-09T08:06:27.999Z,35.36
2022-09-09T08:07:30.415Z,36.39
2022-09-09T08:08:32.506Z,36.39
2022-09-09T08:09:34.875Z,36.95
2022-09-09T08:10:45.504Z,37.96
2022-09-09T08:11:48.631Z,37.93
2022-09-09T08:13:14.977Z,39.96
2022-09-09T08:14:16.126Z,37.94
2022-09-09T08:15:19.575Z,36.50
2022-09-09T08:16:26.935Z,35.61
2022-09-09T08:17:28.935Z,34.28
2022-09-09T08:18:32.922Z,33.69
2022-09-09T08:19:38.212Z,32.60
2022-09-09T08:20:45.679Z,30.79
2022-09-09T08:21:47.665Z,30.01
2022-09-09T08:22:51.307Z,29.76
2022-09-09T08:23:57.750Z,30.49
2022-09-09T08:25:01.548Z,30.93
2022-09-09T08:26:11.811Z,32.32
2022-09-09T08:27:14.033Z,34.37
2022-09-09T08:28:16.226Z,35.17
2022-09-09T08:29:19.329Z,36.63
2022-09-09T08:30:22.482Z,36.30
2022-09-09T08:31:29.279Z,36.11
2022-09-09T08:32:31.447Z,37.50
2022-09-09T08:33:34.748Z,38.06
2022-09-09T08:34:41.192Z,38.18
2022-09-09T08:35:54.015Z,39.08
2022-09-09T08:36:56.848Z,39.26
2022-09-09T08:38:08.930Z,38.85
2022-09-09T08:39:18.780Z,39.10
2022-09-09T08:40:31.149Z,38.24
2022-09-09T08:42:01.809Z,36.94
2022-09-09T08:43:09.814Z,36.75
2022-09-09T08:44:24.470Z,36.16
2022-09-09T08:45:39.643Z,34.86
2022-09-09T08:46:48.117Z,34.78
2022-09-09T08:48:26.861Z,33.79
2022-09-09T08:49:41.691Z,33.14
2022-09-09T08:50:49.701Z,31.42
2022-09-09T08:51:57.369Z,30.66
2022-09-09T08:53:23.728Z,31.44
2022-09-09T08:54:51.289Z,30.88
2022-09-09T08:55:59.927Z,32.14
2022-09-09T08:57:27.826Z,33.17
2022-09-09T08:58:41.769Z,33.65
2022-09-09T08:59:43.894Z,33.80
2022-09-09T09:01:09.429Z,34.90
2022-09-09T09:02:31.428Z,35.45
2022-09-09T09:03:48.684Z,35.63
2022-09-09T09:05:16.572Z,36.96
2022-09-09T09:06:39.746Z,37.89
2022-09-09T09:08:13.698Z,39.01
2022-09-09T09:09:38.031Z,38.51
2022-09-09T09:10:51.856Z,38.89
2022-09-09T09:12:01.940Z,39.34
2022-09-09T09:13:32.543Z,39.03
2022-09-09T09:14:38.860Z,39.16
2022-09-09T09:15:48.125Z,39.07
2022-09-09T09:16:57.384Z,38.80
2022-09-09T09:17:59.697Z,37.74
2022-09-09T09:19:02.557Z,37.38
2022-09-09T09:20:14.718Z,37.03
2022-09-09T09:21:31.156Z,37.50
2022-09-09T09:22:50.206Z,38.06
2022-09-09T09:24:19.745Z,37.77
2022-09-09T09:25:32.749Z,37.33
2022-09-09T09:26:36.669Z,37.15
2022-09-09T09:28:06.813Z,36.96
2022-09-09T09:29:20.119Z,36.96
2022-09-09T09:30:30.270Z,36.69
2022-09-09T09:31:37.344Z,37.57
2022-09-09T09:32:44.344Z,37.46
2022-09-09T09:33:50.677Z,38.04
2022-09-09T09:34:59.265Z,37.95
2022-09-09T09:36:04.860Z,38.66
2022-09-09T09:37:20.658Z,39.21
2022-09-09T09:40:05.087Z,38.87
2022-09-09T09:41:07.766Z,39.25
2022-09-09T09:42:20.401Z,39.81
2022-09-09T09:43:30.530Z,38.72
2022-09-09T09:44:38.347Z,38.83
2022-09-09T09:46:13.964Z,39.49
2022-09-09T09:47:21.494Z,39.13
2022-09-09T09:48:31.620Z,39.04
2022-09-09T09:49:33.921Z,39.19
2022-09-09T09:50:49.511Z,39.63
2022-09-09T09:51:53.756Z,39.68
2022-09-09T09:53:03.635Z,39.42
2022-09-09T09:54:18.178Z,39.80
2022-09-09T09:55:25.331Z,39.74
2022-09-09T09:56:33.680Z,39.62
2022-09-09T09:57:39.684Z,39.10
2022-09-09T09:58:45.645Z,38.99
2022-09-09T09:59:49.101Z,39.25
2022-09-09T10:00:57.526Z,39.83
2022-09-09T10:02:14.323Z,40.14
2022-09-09T10:03:24.286Z,40.33
2022-09-09T10:04:27.852Z,40.14
2022-09-09T10:05:36.957Z,39.91
2022-09-09T10:06:44.881Z,40.46
2022-09-09T10:08:03.205Z,40.56
2022-09-09T10:09:25.415Z,41.53
2022-09-09T10:10:48.377Z,41.17
2022-09-09T10:12:20.221Z,39.92
2022-09-09T10:13:29.108Z,40.50
2022-09-09T10:14:51.427Z,40.20
2022-09-09T10:16:36.394Z,40.29
2022-09-09T10:18:05.533Z,39.36
2022-09-09T10:19:13.894Z,39.00
2022-09-09T10:20:30.502Z,39.08
2022-09-09T10:22:19.080Z,38.44
2022-09-09T10:23:46.997Z,37.83
2022-09-09T10:25:00.464Z,38.13
2022-09-09T10:26:22.189Z,37.46
2022-09-09T10:27:30.695Z,37.40
2022-09-09T10:29:12.499Z,37.22
2022-09-09T10:30:19.103Z,37.16
2022-09-09T10:31:32.140Z,38.06
2022-09-09T10:32:59.141Z,38.03
2022-09-09T10:34:33.262Z,38.81
2022-09-09T10:35:42.015Z,39.26
2022-09-09T10:36:50.340Z,39.28
2022-09-09T10:38:12.031Z,39.26
2022-09-09T10:39:20.012Z,38.91
2022-09-09T10:40:39.578Z,39.29
2022-09-09T10:42:05.601Z,39.41
2022-09-09T10:43:27.593Z,39.15
2022-09-09T10:45:12.490Z,39.16
2022-09-09T10:46:14.502Z,39.57
2022-09-09T10:47:31.897Z,39.11
2022-09-09T10:48:56.863Z,38.71
2022-09-09T10:52:26.115Z,39.49
2022-09-09T10:53:37.614Z,39.92
2022-09-09T10:54:45.765Z,39.51
2022-09-09T10:55:59.003Z,40.22
2022-09-09T10:57:37.727Z,40.36
2022-09-09T10:58:44.173Z,39.95
2022-09-09T10:59:52.201Z,40.43
2022-09-09T11:01:05.265Z,39.92
2022-09-09T11:02:20.677Z,39.55
2022-09-09T11:03:34.211Z,40.40
2022-09-09T11:04:57.783Z,38.80
2022-09-09T11:06:07.766Z,38.96
2022-09-09T11:07:22.290Z,39.13
2022-09-09T11:08:53.786Z,39.46
2022-09-09T11:10:07.655Z,38.61
2022-09-09T11:11:36.407Z,39.93
2022-09-09T11:12:41.259Z,39.88
2022-09-09T11:14:04.199Z,39.77
2022-09-09T11:15:29.723Z,39.61
2022-09-09T11:16:47.372Z,39.71
2022-09-09T11:17:59.811Z,40.32
2022-09-09T11:19:15.953Z,40.25
2022-09-09T11:20:18.325Z,40.65
2022-09-09T11:21:26.976Z,40.10
2022-09-09T11:22:46.300Z,40.48
2022-09-09T11:23:57.318Z,39.64
2022-09-09T11:25:11.583Z,39.55
2022-09-09T11:26:30.346Z,39.73
2022-09-09T11:28:04.290Z,39.80
2022-09-09T11:29:49.775Z,41.08
2022-09-09T11:31:10.810Z,40.76
2022-09-09T11:32:43.383Z,40.63
2022-09-09T11:33:58.568Z,41.18
2022-09-09T11:35:14.886Z,41.12
2022-09-09T11:36:41.509Z,40.05
2022-09-09T11:38:17.076Z,40.75
2022-09-09T11:39:50.361Z,41.74
2022-09-09T11:41:07.822Z,41.26
2022-09-09T11:42:15.762Z,41.79
2022-09-09T11:43:43.104Z,41.50
2022-09-09T11:44:45.510Z,41.21
2022-09-09T11:46:00.217Z,40.39
2022-09-09T11:47:03.364Z,40.98
2022-09-09T11:48:29.911Z,40.27
2022-09-09T11:49:46.708Z,40.60
2022-09-09T11:50:59.738Z,40.07
2022-09-09T11:52:39.772Z,40.61
2022-09-09T11:53:55.302Z,39.80
2022-09-09T11:54:57.707Z,40.07
2022-09-09T11:56:14.685Z,38.83
2022-09-09T11:57:35.881Z,38.98
2022-09-09T11:58:55.601Z,38.43
2022-09-09T12:00:00.128Z,38.13
2022-09-09T12:01:02.571Z,37.71
2022-09-09T12:02:16.055Z,36.97
2022-09-09T12:03:51.426Z,37.54
2022-09-09T12:05:10.039Z,37.84
2022-09-09T12:06:18.091Z,37.82
2022-09-09T12:07:41.539Z,38.00
2022-09-09T12:08:47.350Z,37.92
2022-09-09T12:09:55.339Z,37.47
2022-09-09T12:11:04.433Z,37.23
2022-09-09T12:12:12.456Z,37.16
2022-09-09T12:13:24.034Z,36.77
2022-09-09T12:14:38.928Z,35.93
2022-09-09T12:15:50.883Z,36.36
2022-09-09T12:16:53.873Z,35.88
2022-09-09T12:18:03.355Z,35.95
2022-09-09T12:19:22.058Z,36.43
2022-09-09T12:20:39.985Z,35.70
2022-09-09T12:22:20.762Z,37.05
2022-09-09T12:23:40.797Z,37.96
2022-09-09T12:24:56.610Z,37.92
2022-09-09T12:26:06.024Z,39.28
2022-09-09T12:27:21.979Z,39.91
2022-09-09T12:28:32.065Z,39.88
2022-09-09T12:30:04.125Z,40.33
2022-09-09T12:31:19.257Z,39.89
2022-09-09T12:32:26.555Z,40.25
2022-09-09T12:33:44.085Z,39.90
2022-09-09T12:34:54.655Z,40.13
2022-09-09T12:35:59.396Z,39.05
2022-09-09T12:37:26.357Z,39.67
2022-09-09T12:38:40.356Z,39.11
2022-09-09T12:40:05.668Z,38.76
2022-09-09T12:41:20.619Z,38.26
2022-09-09T12:42:23.872Z,38.37
2022-09-09T12:43:28.432Z,38.38
2022-09-09T12:44:33.585Z,38.84
2022-09-09T12:45:37.157Z,38.63
2022-09-09T12:46:47.712Z,38.32
2022-09-09T12:48:04.704Z,37.09
2022-09-09T12:49:07.629Z,37.76
2022-09-09T12:50:33.304Z,38.18
2022-09-09T12:51:35.740Z,38.22
2022-09-09T12:52:40.077Z,38.92
2022-09-09T12:53:42.207Z,38.80
2022-09-09T12:54:51.734Z,38.56
2022-09-09T12:56:21.057Z,39.11
2022-09-09T12:57:26.677Z,38.42
2022-09-09T12:58:33.866Z,38.60
2022-09-09T12:59:46.375Z,38.51
2022-09-09T13:00:57.601Z,37.59
2022-09-09T13:02:01.453Z,38.14
2022-09-09T13:03:18.113Z,37.48
2022-09-09T13:04:26.069Z,37.58
2022-09-09T13:05:40.094Z,37.75
2022-09-09T13:06:42.054Z,37.88
2022-09-09T13:07:44.408Z,37.75
2022-09-09T13:08:48.966Z,38.47
2022-09-09T13:09:51.134Z,37.88
2022-09-09T13:11:03.824Z,38.27
2022-09-09T13:12:10.730Z,37.98
2022-09-09T13:13:18.548Z,38.76
2022-09-09T13:14:38.467Z,38.40
2022-09-09T13:15:41.709Z,38.41
2022-09-09T13:16:43.755Z,39.13
2022-09-09T13:17:52.405Z,38.81
2022-09-09T13:18:54.674Z,39.03
2022-09-09T13:19:58.180Z,38.42
2022-09-09T13:21:01.301Z,38.97
2022-09-09T13:22:20.722Z,39.51
2022-09-09T13:23:23.318Z,39.05
2022-09-09T13:24:31.248Z,38.58
2022-09-09T13:25:37.890Z,39.33
2022-09-09T13:26:43.234Z,38.98
2022-09-09T13:27:56.398Z,38.97
2022-09-09T13:29:18.947Z,38.77
2022-09-09T13:30:33.439Z,38.53
2022-09-09T13:31:38.391Z,38.79
2022-09-09T13:32:40.712Z,38.56
2022-09-09T13:33:44.213Z,38.86
2022-09-09T13:34:57.903Z,38.88
2022-09-09T13:36:05.337Z,38.80
2022-09-09T13:37:24.510Z,39.49
2022-09-09T13:38:27.602Z,40.26
2022-09-09T13:39:30.723Z,40.36
2022-09-09T13:40:35.362Z,40.21
2022-09-09T13:41:43.244Z,40.27
2022-09-09T13:42:45.930Z,40.81
2022-09-09T13:43:49.396Z,41.07
2022-09-09T13:44:51.328Z,41.28
2022-09-09T13:46:05.827Z,41.26
2022-09-09T13:47:20.935Z,40.94
2022-09-09T13:48:26.186Z,41.51
2022-09-09T13:49:30.429Z,41.15
2022-09-09T13:50:32.705Z,41.54
2022-09-09T13:51:38.822Z,42.11
2022-09-09T13:52:41.308Z,41.83
2022-09-09T13:53:43.241Z,41.87
2022-09-09T13:54:50.462Z,42.31
2022-09-09T13:55:53.471Z,42.11
2022-09-09T13:56:56.471Z,42.85
2022-09-09T13:58:02.346Z,42.51
2022-09-09T13:59:06.887Z,42.70
2022-09-09T14:00:13.678Z,42.26
2022-09-09T14:01:16.149Z,42.40
2022-09-09T14:02:18.191Z,42.97
2022-09-09T14:03:21.389Z,42.39
2022-09-09T14:04:23.350Z,42.60
2022-09-09T14:05:26.265Z,42.83
2022-09-09T14:06:28.621Z,43.07
2022-09-09T14:07:31.666Z,43.37
2022-09-09T14:08:38.520Z,43.40
2022-09-09T14:09:41.478Z,43.23
2022-09-09T14:10:43.367Z,43.74
2022-09-09T14:11:47.284Z,43.32
2022-09-09T14:12:49.223Z,43.45
2022-09-09T14:13:52.237Z,43.72
2022-09-09T14:14:55.490Z,43.82
2022-09-09T14:15:57.738Z,44.16
2022-09-09T14:17:01.503Z,43.88
2022-09-09T14:18:06.938Z,43.80
2022-09-09T14:19:10.592Z,43.60
2022-09-09T14:20:14.410Z,43.55
2022-09-09T14:21:16.787Z,44.25
2022-09-09T14:22:19.867Z,43.83
2022-09-09T14:23:23.162Z,44.04
2022-09-09T14:24:26.339Z,44.39
2022-09-09T14:25:28.766Z,44.25
2022-09-09T14:26:31.303Z,44.43
2022-09-09T14:27:33.810Z,44.26
2022-09-09T14:28:54.319Z,44.27
2022-09-09T14:29:58.870Z,44.01
2022-09-09T14:31:04.857Z,44.13
2022-09-09T14:32:11.957Z,44.66
2022-09-09T14:33:19.481Z,44.32
2022-09-09T14:34:21.899Z,45.00
2022-09-09T14:35:25.820Z,45.22
2022-09-09T14:36:28.080Z,44.99
2022-09-09T14:37:32.211Z,45.26
2022-09-09T14:38:39.884Z,44.77
2022-09-09T14:39:42.087Z,44.73
2022-09-09T14:40:47.990Z,44.54
2022-09-09T14:41:50.028Z,45.01
2022-09-09T14:42:55.138Z,44.90
2022-09-09T14:43:58.463Z,44.47
2022-09-09T14:45:00.495Z,44.20
2022-09-09T14:46:07.610Z,44.35
2022-09-09T14:47:10.072Z,45.14
2022-09-09T14:48:12.142Z,45.70
2022-09-09T14:49:14.147Z,45.04
2022-09-09T14:50:16.712Z,45.33
2022-09-09T14:51:25.820Z,45.37
2022-09-09T14:52:27.908Z,44.92
2022-09-09T14:53:30.607Z,45.27
2022-09-09T14:54:33.536Z,45.00
2022-09-09T14:55:36.021Z,45.52
2022-09-09T14:56:38.798Z,45.55
2022-09-09T14:57:41.469Z,45.21
2022-09-09T14:58:44.978Z,45.35
2022-09-09T14:59:46.967Z,45.11
2022-09-09T15:00:49.021Z,45.14
2022-09-09T15:01:51.031Z,45.23
2022-09-09T15:02:54.643Z,45.87
2022-09-09T15:03:59.258Z,45.86